Arran, United Kingdom
Current Conditions -  °F | °C
As of 4:50 AM on Thursday 23 Oct 2014 (Local Time) from EGPK Reporting Station
Light Rain Light Rain  
Wind Chill: 54°   Ceiling: 2000
Heat Index: 54°   Visibility: 6mi
Dew Point: 52°   Wind: 10mph
Humidity: 94%   Direction: 200°SSW
Pressure: 29.85"   Gusts: NA
Location:  55.58°N, 5.15°W
Report Text: EGPK 230350Z 20009KT 9999 -RA SCT009 BKN020 12/11 Q1011
Loading
Personal Weather Stations






























Interactive Weather Map
Tropical Storm Tracking
New forecast layout! Learn more

10-Day Weather Forecast

Advertisements
Track Severe Weather on mobile